Strona główna
METAR-TAF:

METAR-TAF

Lotnisko :

Port lotniczy Tawau

Tawau, Malezja

Szerokość geograficzna: 04-16N, Długość geograficzna: 117-53E, wysokość: 18 m

Aktualna obserwacja pogody

Raport powstał 1 godzina i 11 minut temu, godzina 13:00 UTC
Wiatr 3 kt od północno-północny wschód, zmienny między północ i wschodnio-północny wschód
Temperatura 26°C
Wilgotność 89%
Ciśnienie 1010 hPa
Widzialność 10 km lub więcej
Mało chmury na wysokości 1700 ft
Przerywane chmury na wysokości 30000 ft

METAR: WBKW 211300Z 03003KT 350V060 9999 FEW017 BKN300 26/24 Q1010

czas: 22:11 (14:11 UTC)

Prognoza

Raport powstał 3 godziny i 11 minut temu, godzina 11:00 UTC
Prognoza ważna od 21 godzina 12 UTC do 22 godzina 12 UTC
Wiatr 5 kt od północno-północny zachód
Widzialność 10 km lub więcej
Mało chmury na wysokości 1700 ft

TAF: WBKW 211100Z 2112/2212 33005KT 9999 FEW017

Obserwacja i prognoza pogody dla ponad 4000 lotnisk (raport METAR i TAF).

Dostępne stacje oznaczono żółtymi i czerwonymi punktami na mapie.

Najedź kursorem aby zobaczyć nazwę stacji.

Kliknij aby zobaczyć obserwacje i prognozy pogody.

Aby zmienić mapę: kliknij na zielony przycisk z czarnym krzyżykiem, aby powiększyć; na zielony przycisk z myślnikiem, aby pomniejszyć; na zielone strzałki, aby przejść do map sąsiednich.


METAR-TAF: